sensor_id;sensor_type;location;lat;lon;timestamp;pressure;altitude;pressure_sealevel;temperature;humidity
79368;BME280;68834;53.152;17.962;2023-04-25T00:01:51;99865.64;;;11.46;80.81
79368;BME280;68834;53.152;17.962;2023-04-25T00:04:18;99862.48;;;11.46;80.78
79368;BME280;68834;53.152;17.962;2023-04-25T00:06:45;99863.58;;;11.45;80.78
79368;BME280;68834;53.152;17.962;2023-04-25T00:09:12;99863.27;;;11.44;80.72
79368;BME280;68834;53.152;17.962;2023-04-25T00:11:40;99861.52;;;11.40;80.48
79368;BME280;68834;53.152;17.962;2023-04-25T00:14:06;99861.19;;;11.36;80.58
79368;BME280;68834;53.152;17.962;2023-04-25T00:16:34;99857.34;;;11.32;80.34
79368;BME280;68834;53.152;17.962;2023-04-25T00:19:01;99856.31;;;11.26;80.14
79368;BME280;68834;53.152;17.962;2023-04-25T00:21:30;99862.74;;;11.23;80.19
79368;BME280;68834;53.152;17.962;2023-04-25T00:23:58;99862.19;;;11.20;80.07
79368;BME280;68834;53.152;17.962;2023-04-25T00:26:24;99863.80;;;11.15;80.10
79368;BME280;68834;53.152;17.962;2023-04-25T00:28:51;99861.16;;;11.11;79.99
79368;BME280;68834;53.152;17.962;2023-04-25T00:31:18;99865.77;;;11.05;79.74
79368;BME280;68834;53.152;17.962;2023-04-25T00:33:44;99867.58;;;11.00;79.45
79368;BME280;68834;53.152;17.962;2023-04-25T00:36:11;99869.16;;;10.95;79.61
79368;BME280;68834;53.152;17.962;2023-04-25T00:38:38;99873.52;;;10.92;79.42
79368;BME280;68834;53.152;17.962;2023-04-25T00:41:08;99876.91;;;10.89;79.34
79368;BME280;68834;53.152;17.962;2023-04-25T00:43:36;99876.30;;;10.87;79.47
79368;BME280;68834;53.152;17.962;2023-04-25T00:46:03;99877.96;;;10.85;79.28
79368;BME280;68834;53.152;17.962;2023-04-25T00:48:30;99880.93;;;10.80;79.11
79368;BME280;68834;53.152;17.962;2023-04-25T00:50:58;99882.35;;;10.76;78.92
79368;BME280;68834;53.152;17.962;2023-04-25T00:53:27;99885.90;;;10.70;78.82
79368;BME280;68834;53.152;17.962;2023-04-25T00:55:54;99887.73;;;10.64;78.62
79368;BME280;68834;53.152;17.962;2023-04-25T00:58:22;99893.34;;;10.58;78.23
79368;BME280;68834;53.152;17.962;2023-04-25T01:00:50;99891.34;;;10.51;77.77
79368;BME280;68834;53.152;17.962;2023-04-25T01:03:18;99892.06;;;10.46;77.99
79368;BME280;68834;53.152;17.962;2023-04-25T01:05:48;99895.25;;;10.45;77.92
79368;BME280;68834;53.152;17.962;2023-04-25T01:08:15;99891.17;;;10.42;77.78
79368;BME280;68834;53.152;17.962;2023-04-25T01:10:42;99891.82;;;10.39;78.07
79368;BME280;68834;53.152;17.962;2023-04-25T01:13:09;99890.19;;;10.35;77.85
79368;BME280;68834;53.152;17.962;2023-04-25T01:15:36;99890.66;;;10.32;77.73
79368;BME280;68834;53.152;17.962;2023-04-25T01:18:04;99890.36;;;10.31;77.82
79368;BME280;68834;53.152;17.962;2023-04-25T01:20:32;99888.39;;;10.28;77.31
79368;BME280;68834;53.152;17.962;2023-04-25T01:23:00;99892.47;;;10.26;77.41
79368;BME280;68834;53.152;17.962;2023-04-25T01:25:29;99890.59;;;10.24;77.03
79368;BME280;68834;53.152;17.962;2023-04-25T01:27:57;99892.73;;;10.23;77.06
79368;BME280;68834;53.152;17.962;2023-04-25T01:30:28;99893.19;;;10.20;77.13
79368;BME280;68834;53.152;17.962;2023-04-25T01:32:57;99894.24;;;10.15;77.25
79368;BME280;68834;53.152;17.962;2023-04-25T01:35:24;99900.73;;;10.09;76.53
79368;BME280;68834;53.152;17.962;2023-04-25T01:37:53;99900.41;;;10.04;76.64
79368;BME280;68834;53.152;17.962;2023-04-25T01:40:21;99899.48;;;10.01;76.52
79368;BME280;68834;53.152;17.962;2023-04-25T01:42:48;99897.64;;;9.98;76.29
79368;BME280;68834;53.152;17.962;2023-04-25T01:45:15;99902.42;;;9.97;76.32
79368;BME280;68834;53.152;17.962;2023-04-25T01:47:43;99902.29;;;9.96;76.67
79368;BME280;68834;53.152;17.962;2023-04-25T01:50:13;99910.26;;;9.93;76.49
79368;BME280;68834;53.152;17.962;2023-04-25T01:52:40;99912.96;;;9.90;76.74
79368;BME280;68834;53.152;17.962;2023-04-25T01:55:07;99914.18;;;9.85;76.76
79368;BME280;68834;53.152;17.962;2023-04-25T01:57:36;99912.08;;;9.80;76.59
79368;BME280;68834;53.152;17.962;2023-04-25T02:00:05;99915.59;;;9.80;76.48
79368;BME280;68834;53.152;17.962;2023-04-25T02:02:38;99916.89;;;9.77;76.95
79368;BME280;68834;53.152;17.962;2023-04-25T02:05:08;99917.34;;;9.75;76.82
79368;BME280;68834;53.152;17.962;2023-04-25T02:07:39;99914.29;;;9.72;76.71
79368;BME280;68834;53.152;17.962;2023-04-25T02:10:06;99915.48;;;9.68;77.11
79368;BME280;68834;53.152;17.962;2023-04-25T02:12:36;99918.31;;;9.61;76.99
79368;BME280;68834;53.152;17.962;2023-04-25T02:15:38;99924.61;;;9.56;77.22
79368;BME280;68834;53.152;17.962;2023-04-25T02:18:15;99926.53;;;9.51;77.16
79368;BME280;68834;53.152;17.962;2023-04-25T02:20:43;99925.02;;;9.49;77.20
79368;BME280;68834;53.152;17.962;2023-04-25T02:23:10;99927.61;;;9.50;77.50
79368;BME280;68834;53.152;17.962;2023-04-25T02:25:37;99927.23;;;9.51;77.39
79368;BME280;68834;53.152;17.962;2023-04-25T02:28:04;99928.36;;;9.48;77.04
79368;BME280;68834;53.152;17.962;2023-04-25T02:30:31;99930.19;;;9.46;77.16
79368;BME280;68834;53.152;17.962;2023-04-25T02:32:57;99928.14;;;9.39;77.29
79368;BME280;68834;53.152;17.962;2023-04-25T02:35:24;99932.00;;;9.33;77.26
79368;BME280;68834;53.152;17.962;2023-04-25T02:37:54;99932.48;;;9.30;77.31
79368;BME280;68834;53.152;17.962;2023-04-25T02:40:21;99935.20;;;9.26;77.58
79368;BME280;68834;53.152;17.962;2023-04-25T02:42:47;99932.85;;;9.24;77.15
79368;BME280;68834;53.152;17.962;2023-04-25T02:45:14;99932.46;;;9.19;77.04
79368;BME280;68834;53.152;17.962;2023-04-25T02:47:41;99934.34;;;9.15;77.17
79368;BME280;68834;53.152;17.962;2023-04-25T02:50:08;99936.35;;;9.12;76.80
79368;BME280;68834;53.152;17.962;2023-04-25T02:52:34;99937.62;;;9.11;77.24
79368;BME280;68834;53.152;17.962;2023-04-25T02:55:12;99938.05;;;9.08;77.18
79368;BME280;68834;53.152;17.962;2023-04-25T02:57:39;99936.20;;;9.06;77.14
79368;BME280;68834;53.152;17.962;2023-04-25T03:00:07;99937.59;;;9.06;77.12
79368;BME280;68834;53.152;17.962;2023-04-25T03:02:34;99937.06;;;9.01;76.84
79368;BME280;68834;53.152;17.962;2023-04-25T03:05:00;99938.86;;;8.93;76.96
79368;BME280;68834;53.152;17.962;2023-04-25T03:07:27;99942.64;;;8.83;76.85
79368;BME280;68834;53.152;17.962;2023-04-25T03:09:54;99941.27;;;8.77;76.96
79368;BME280;68834;53.152;17.962;2023-04-25T03:12:23;99940.25;;;8.70;77.17
79368;BME280;68834;53.152;17.962;2023-04-25T03:14:49;99937.81;;;8.65;77.26
79368;BME280;68834;53.152;17.962;2023-04-25T03:17:16;99939.23;;;8.59;77.23
79368;BME280;68834;53.152;17.962;2023-04-25T03:19:42;99939.59;;;8.52;76.98
79368;BME280;68834;53.152;17.962;2023-04-25T03:22:09;99941.41;;;8.49;77.08
79368;BME280;68834;53.152;17.962;2023-04-25T03:24:36;99938.71;;;8.46;77.06
79368;BME280;68834;53.152;17.962;2023-04-25T03:27:03;99943.48;;;8.43;76.70
79368;BME280;68834;53.152;17.962;2023-04-25T03:29:30;99941.86;;;8.39;77.06
79368;BME280;68834;53.152;17.962;2023-04-25T03:31:57;99939.70;;;8.35;76.87
79368;BME280;68834;53.152;17.962;2023-04-25T03:34:24;99942.23;;;8.32;76.75
79368;BME280;68834;53.152;17.962;2023-04-25T03:36:50;99945.66;;;8.28;76.67
79368;BME280;68834;53.152;17.962;2023-04-25T03:39:17;99948.70;;;8.25;76.87
79368;BME280;68834;53.152;17.962;2023-04-25T03:41:47;99951.55;;;8.22;76.82
79368;BME280;68834;53.152;17.962;2023-04-25T03:44:14;99951.61;;;8.20;76.76
79368;BME280;68834;53.152;17.962;2023-04-25T03:46:41;99952.36;;;8.18;76.63
79368;BME280;68834;53.152;17.962;2023-04-25T03:49:08;99956.93;;;8.17;76.66
79368;BME280;68834;53.152;17.962;2023-04-25T03:51:51;99961.13;;;8.16;76.52
79368;BME280;68834;53.152;17.962;2023-04-25T03:54:18;99965.31;;;8.16;76.46
79368;BME280;68834;53.152;17.962;2023-04-25T03:57:08;99969.54;;;8.14;76.60
79368;BME280;68834;53.152;17.962;2023-04-25T03:59:37;99973.08;;;8.12;76.37
79368;BME280;68834;53.152;17.962;2023-04-25T04:02:03;99975.06;;;8.09;76.50
79368;BME280;68834;53.152;17.962;2023-04-25T04:04:32;99973.84;;;8.09;76.81
79368;BME280;68834;53.152;17.962;2023-04-25T04:06:59;99979.48;;;8.14;76.64
79368;BME280;68834;53.152;17.962;2023-04-25T04:09:29;99982.91;;;8.15;76.80
79368;BME280;68834;53.152;17.962;2023-04-25T04:11:58;99980.98;;;8.16;76.51
79368;BME280;68834;53.152;17.962;2023-04-25T04:14:24;99982.55;;;8.16;76.49
79368;BME280;68834;53.152;17.962;2023-04-25T04:16:51;99983.33;;;8.13;76.28
79368;BME280;68834;53.152;17.962;2023-04-25T04:19:19;99988.61;;;8.11;76.66
79368;BME280;68834;53.152;17.962;2023-04-25T04:21:52;99992.63;;;8.10;76.30
79368;BME280;68834;53.152;17.962;2023-04-25T04:24:19;99998.55;;;8.10;76.30
79368;BME280;68834;53.152;17.962;2023-04-25T04:26:53;99995.25;;;8.10;76.13
79368;BME280;68834;53.152;17.962;2023-04-25T04:29:33;99995.92;;;8.10;75.96
79368;BME280;68834;53.152;17.962;2023-04-25T04:32:05;99997.48;;;8.11;75.87
79368;BME280;68834;53.152;17.962;2023-04-25T04:34:33;100003.02;;;8.12;75.73
79368;BME280;68834;53.152;17.962;2023-04-25T04:37:00;100006.80;;;8.14;75.86
79368;BME280;68834;53.152;17.962;2023-04-25T04:39:27;100008.19;;;8.14;75.45
79368;BME280;68834;53.152;17.962;2023-04-25T04:42:09;100010.80;;;8.14;75.78
79368;BME280;68834;53.152;17.962;2023-04-25T04:45:04;100010.09;;;8.14;75.79
79368;BME280;68834;53.152;17.962;2023-04-25T04:47:44;100013.17;;;8.16;75.38
79368;BME280;68834;53.152;17.962;2023-04-25T04:50:34;100008.91;;;8.19;75.38
79368;BME280;68834;53.152;17.962;2023-04-25T04:53:22;100007.23;;;8.23;75.37
79368;BME280;68834;53.152;17.962;2023-04-25T04:56:08;100005.84;;;8.30;75.42
79368;BME280;68834;53.152;17.962;2023-04-25T04:58:59;100008.60;;;8.37;75.00
79368;BME280;68834;53.152;17.962;2023-04-25T05:01:37;100015.56;;;8.37;74.44
79368;BME280;68834;53.152;17.962;2023-04-25T05:04:16;100015.07;;;8.36;74.38
79368;BME280;68834;53.152;17.962;2023-04-25T05:06:42;100020.46;;;8.36;74.25
79368;BME280;68834;53.152;17.962;2023-04-25T05:09:29;100019.71;;;8.32;74.33
79368;BME280;68834;53.152;17.962;2023-04-25T05:12:22;100016.98;;;8.29;74.35
79368;BME280;68834;53.152;17.962;2023-04-25T05:15:09;100015.59;;;8.30;74.49
79368;BME280;68834;53.152;17.962;2023-04-25T05:17:52;100011.89;;;8.31;74.14
79368;BME280;68834;53.152;17.962;2023-04-25T05:20:37;100016.81;;;8.36;74.30
79368;BME280;68834;53.152;17.962;2023-04-25T05:23:15;100017.77;;;8.40;73.94
79368;BME280;68834;53.152;17.962;2023-04-25T05:26:02;100022.89;;;8.44;73.87
79368;BME280;68834;53.152;17.962;2023-04-25T05:28:46;100020.75;;;8.46;73.20
79368;BME280;68834;53.152;17.962;2023-04-25T05:31:31;100021.90;;;8.48;73.72
79368;BME280;68834;53.152;17.962;2023-04-25T05:34:02;100022.83;;;8.59;73.67
79368;BME280;68834;53.152;17.962;2023-04-25T05:36:40;100028.04;;;8.71;73.21
79368;BME280;68834;53.152;17.962;2023-04-25T05:39:06;100026.94;;;8.80;72.59
79368;BME280;68834;53.152;17.962;2023-04-25T05:42:07;100027.49;;;8.90;72.56
79368;BME280;68834;53.152;17.962;2023-04-25T05:44:58;100026.81;;;9.01;72.69
79368;BME280;68834;53.152;17.962;2023-04-25T05:47:47;100025.91;;;9.19;72.43
79368;BME280;68834;53.152;17.962;2023-04-25T05:50:19;100023.98;;;9.31;71.76
79368;BME280;68834;53.152;17.962;2023-04-25T05:52:52;100025.67;;;9.37;71.39
79368;BME280;68834;53.152;17.962;2023-04-25T05:55:29;100024.77;;;9.44;71.35
79368;BME280;68834;53.152;17.962;2023-04-25T05:57:56;100025.59;;;9.51;71.08
79368;BME280;68834;53.152;17.962;2023-04-25T06:00:24;100030.17;;;9.61;70.45
79368;BME280;68834;53.152;17.962;2023-04-25T06:02:51;100029.56;;;9.58;69.75
79368;BME280;68834;53.152;17.962;2023-04-25T06:05:18;100026.85;;;9.50;70.29
79368;BME280;68834;53.152;17.962;2023-04-25T06:07:46;100027.56;;;9.50;70.29
79368;BME280;68834;53.152;17.962;2023-04-25T06:10:12;100028.63;;;9.49;69.98
79368;BME280;68834;53.152;17.962;2023-04-25T06:12:39;100023.47;;;9.48;70.18
79368;BME280;68834;53.152;17.962;2023-04-25T06:15:06;100024.08;;;9.50;70.36
79368;BME280;68834;53.152;17.962;2023-04-25T06:17:33;100028.06;;;9.51;70.63
79368;BME280;68834;53.152;17.962;2023-04-25T06:20:01;100030.80;;;9.58;70.29
79368;BME280;68834;53.152;17.962;2023-04-25T06:22:28;100031.94;;;9.66;69.95
79368;BME280;68834;53.152;17.962;2023-04-25T06:24:56;100029.27;;;9.73;69.45
79368;BME280;68834;53.152;17.962;2023-04-25T06:27:25;100031.95;;;9.86;69.54
79368;BME280;68834;53.152;17.962;2023-04-25T06:29:52;100035.94;;;10.03;69.38
79368;BME280;68834;53.152;17.962;2023-04-25T06:32:19;100033.98;;;10.14;68.62
79368;BME280;68834;53.152;17.962;2023-04-25T06:34:46;100031.51;;;10.20;68.17
79368;BME280;68834;53.152;17.962;2023-04-25T06:37:12;100029.37;;;10.32;68.15
79368;BME280;68834;53.152;17.962;2023-04-25T06:39:39;100027.80;;;10.51;68.37
79368;BME280;68834;53.152;17.962;2023-04-25T06:42:06;100020.55;;;10.72;68.00
79368;BME280;68834;53.152;17.962;2023-04-25T06:44:58;100011.41;;;11.02;67.54
79368;BME280;68834;53.152;17.962;2023-04-25T06:47:24;100012.56;;;11.17;66.74
79368;BME280;68834;53.152;17.962;2023-04-25T06:49:51;100011.45;;;11.36;66.73
79368;BME280;68834;53.152;17.962;2023-04-25T06:52:18;100008.23;;;11.51;65.97
79368;BME280;68834;53.152;17.962;2023-04-25T06:54:45;100007.97;;;11.62;65.05
79368;BME280;68834;53.152;17.962;2023-04-25T06:57:44;100011.40;;;11.76;64.92
79368;BME280;68834;53.152;17.962;2023-04-25T07:00:33;100002.40;;;11.95;64.13
79368;BME280;68834;53.152;17.962;2023-04-25T07:03:00;100006.98;;;12.07;63.67
79368;BME280;68834;53.152;17.962;2023-04-25T07:05:27;100003.48;;;12.27;63.53
79368;BME280;68834;53.152;17.962;2023-04-25T07:07:54;100005.28;;;12.42;61.21
79368;BME280;68834;53.152;17.962;2023-04-25T07:10:20;100011.05;;;12.61;62.07
79368;BME280;68834;53.152;17.962;2023-04-25T07:12:48;100002.70;;;12.94;61.53
79368;BME280;68834;53.152;17.962;2023-04-25T07:15:14;100000.51;;;13.19;61.11
79368;BME280;68834;53.152;17.962;2023-04-25T07:17:42;100002.95;;;13.31;60.99
79368;BME280;68834;53.152;17.962;2023-04-25T07:20:09;100005.98;;;13.44;60.44
79368;BME280;68834;53.152;17.962;2023-04-25T07:22:36;100009.14;;;13.62;59.07
79368;BME280;68834;53.152;17.962;2023-04-25T07:25:04;100015.37;;;13.82;59.18
79368;BME280;68834;53.152;17.962;2023-04-25T07:27:31;100011.33;;;14.09;58.33
79368;BME280;68834;53.152;17.962;2023-04-25T07:30:13;100009.55;;;14.30;57.38
79368;BME280;68834;53.152;17.962;2023-04-25T07:32:40;100013.36;;;14.34;57.07
79368;BME280;68834;53.152;17.962;2023-04-25T07:35:07;100016.44;;;14.36;55.93
79368;BME280;68834;53.152;17.962;2023-04-25T07:37:35;100016.60;;;14.47;56.22
79368;BME280;68834;53.152;17.962;2023-04-25T07:40:16;100018.56;;;14.56;55.74
79368;BME280;68834;53.152;17.962;2023-04-25T07:42:46;100018.39;;;14.50;55.97
79368;BME280;68834;53.152;17.962;2023-04-25T07:45:16;100022.06;;;14.40;55.08
79368;BME280;68834;53.152;17.962;2023-04-25T07:47:43;100024.92;;;14.15;54.58
79368;BME280;68834;53.152;17.962;2023-04-25T07:50:10;100029.05;;;13.96;55.19
79368;BME280;68834;53.152;17.962;2023-04-25T07:52:37;100030.79;;;13.86;55.22
79368;BME280;68834;53.152;17.962;2023-04-25T07:55:13;100027.03;;;13.77;54.82
79368;BME280;68834;53.152;17.962;2023-04-25T07:57:53;100030.06;;;13.65;54.49
79368;BME280;68834;53.152;17.962;2023-04-25T08:00:20;100026.33;;;13.48;55.19
79368;BME280;68834;53.152;17.962;2023-04-25T08:02:47;100032.72;;;13.39;55.55
79368;BME280;68834;53.152;17.962;2023-04-25T08:05:15;100033.95;;;13.36;55.66
79368;BME280;68834;53.152;17.962;2023-04-25T08:07:44;100033.04;;;13.29;55.61
79368;BME280;68834;53.152;17.962;2023-04-25T08:10:11;100029.08;;;13.24;56.12
79368;BME280;68834;53.152;17.962;2023-04-25T08:12:37;100036.75;;;13.21;56.18
79368;BME280;68834;53.152;17.962;2023-04-25T08:15:05;100040.25;;;13.13;55.83
79368;BME280;68834;53.152;17.962;2023-04-25T08:17:35;100037.71;;;13.07;56.19
79368;BME280;68834;53.152;17.962;2023-04-25T08:20:01;100042.55;;;13.09;56.18
79368;BME280;68834;53.152;17.962;2023-04-25T08:22:31;100040.13;;;13.12;56.38
79368;BME280;68834;53.152;17.962;2023-04-25T08:25:14;100046.08;;;13.28;56.39
79368;BME280;68834;53.152;17.962;2023-04-25T08:27:41;100044.89;;;13.45;56.18
79368;BME280;68834;53.152;17.962;2023-04-25T08:30:08;100043.98;;;13.61;55.78
79368;BME280;68834;53.152;17.962;2023-04-25T08:32:35;100047.88;;;13.81;56.09
79368;BME280;68834;53.152;17.962;2023-04-25T08:35:34;100045.67;;;14.04;55.18
79368;BME280;68834;53.152;17.962;2023-04-25T08:38:01;100053.21;;;14.15;54.86
79368;BME280;68834;53.152;17.962;2023-04-25T08:40:28;100055.95;;;14.06;54.89
79368;BME280;68834;53.152;17.962;2023-04-25T08:43:03;100055.57;;;13.93;54.48
79368;BME280;68834;53.152;17.962;2023-04-25T08:45:31;100050.52;;;13.71;54.77
79368;BME280;68834;53.152;17.962;2023-04-25T08:48:00;100047.51;;;13.50;55.05
79368;BME280;68834;53.152;17.962;2023-04-25T08:50:27;100050.67;;;13.35;55.98
79368;BME280;68834;53.152;17.962;2023-04-25T08:52:57;100054.20;;;13.23;55.43
79368;BME280;68834;53.152;17.962;2023-04-25T08:55:28;100057.96;;;13.09;55.77
79368;BME280;68834;53.152;17.962;2023-04-25T08:57:57;100057.91;;;12.99;55.74
79368;BME280;68834;53.152;17.962;2023-04-25T09:00:26;100061.79;;;12.87;55.58
79368;BME280;68834;53.152;17.962;2023-04-25T09:02:53;100062.45;;;12.77;56.35
79368;BME280;68834;53.152;17.962;2023-04-25T09:05:21;100067.13;;;12.85;56.00
79368;BME280;68834;53.152;17.962;2023-04-25T09:07:52;100065.05;;;13.04;56.21
79368;BME280;68834;53.152;17.962;2023-04-25T09:10:18;100063.98;;;13.24;55.76
79368;BME280;68834;53.152;17.962;2023-04-25T09:13:01;100071.55;;;13.42;55.68
79368;BME280;68834;53.152;17.962;2023-04-25T09:15:28;100072.46;;;13.53;54.03
79368;BME280;68834;53.152;17.962;2023-04-25T09:18:32;100071.10;;;13.63;54.49
79368;BME280;68834;53.152;17.962;2023-04-25T09:21:10;100073.98;;;13.90;54.35
79368;BME280;68834;53.152;17.962;2023-04-25T09:23:43;100077.14;;;14.08;53.80
79368;BME280;68834;53.152;17.962;2023-04-25T09:26:14;100075.71;;;14.22;53.02
79368;BME280;68834;53.152;17.962;2023-04-25T09:28:44;100075.33;;;14.36;52.44
79368;BME280;68834;53.152;17.962;2023-04-25T09:31:21;100074.52;;;14.45;51.82
79368;BME280;68834;53.152;17.962;2023-04-25T09:33:49;100073.83;;;14.66;50.11
79368;BME280;68834;53.152;17.962;2023-04-25T09:36:16;100070.85;;;14.89;50.05
79368;BME280;68834;53.152;17.962;2023-04-25T09:39:01;100070.58;;;15.29;49.94
79368;BME280;68834;53.152;17.962;2023-04-25T09:41:37;100068.02;;;15.72;49.19
79368;BME280;68834;53.152;17.962;2023-04-25T09:44:04;100068.16;;;16.06;49.64
79368;BME280;68834;53.152;17.962;2023-04-25T09:46:37;100075.73;;;16.34;48.41
79368;BME280;68834;53.152;17.962;2023-04-25T09:49:08;100075.60;;;16.30;47.39
79368;BME280;68834;53.152;17.962;2023-04-25T09:51:41;100073.23;;;15.92;47.40
79368;BME280;68834;53.152;17.962;2023-04-25T09:54:09;100081.30;;;15.74;48.09
79368;BME280;68834;53.152;17.962;2023-04-25T09:56:39;100085.86;;;15.71;48.00
79368;BME280;68834;53.152;17.962;2023-04-25T09:59:08;100090.77;;;15.59;47.00
79368;BME280;68834;53.152;17.962;2023-04-25T10:01:39;100091.37;;;15.45;47.44
79368;BME280;68834;53.152;17.962;2023-04-25T10:04:10;100093.35;;;15.41;47.18
79368;BME280;68834;53.152;17.962;2023-04-25T10:06:48;100088.33;;;15.52;47.29
79368;BME280;68834;53.152;17.962;2023-04-25T10:09:16;100090.09;;;15.52;47.24
79368;BME280;68834;53.152;17.962;2023-04-25T10:11:46;100093.13;;;15.48;46.28
79368;BME280;68834;53.152;17.962;2023-04-25T10:14:14;100094.33;;;15.36;47.21
79368;BME280;68834;53.152;17.962;2023-04-25T10:16:42;100093.10;;;15.42;47.62
79368;BME280;68834;53.152;17.962;2023-04-25T10:19:09;100097.06;;;15.50;46.48
79368;BME280;68834;53.152;17.962;2023-04-25T10:21:48;100096.30;;;15.39;46.70
79368;BME280;68834;53.152;17.962;2023-04-25T10:24:16;100102.09;;;15.42;46.61
79368;BME280;68834;53.152;17.962;2023-04-25T10:26:43;100102.10;;;15.39;45.23
79368;BME280;68834;53.152;17.962;2023-04-25T10:29:10;100100.77;;;15.21;45.95
79368;BME280;68834;53.152;17.962;2023-04-25T10:31:45;100100.49;;;15.27;46.59
79368;BME280;68834;53.152;17.962;2023-04-25T10:34:13;100097.63;;;15.37;45.91
79368;BME280;68834;53.152;17.962;2023-04-25T10:36:40;100101.53;;;15.49;46.20
79368;BME280;68834;53.152;17.962;2023-04-25T10:39:07;100104.00;;;15.46;45.55
79368;BME280;68834;53.152;17.962;2023-04-25T10:41:52;100112.64;;;15.33;45.91
79368;BME280;68834;53.152;17.962;2023-04-25T10:44:19;100103.50;;;15.23;46.43
79368;BME280;68834;53.152;17.962;2023-04-25T10:46:46;100105.71;;;15.24;46.41
79368;BME280;68834;53.152;17.962;2023-04-25T10:49:35;100106.34;;;15.23;46.41
79368;BME280;68834;53.152;17.962;2023-04-25T10:52:24;100110.87;;;15.00;46.90
79368;BME280;68834;53.152;17.962;2023-04-25T10:54:53;100109.41;;;14.92;46.99
79368;BME280;68834;53.152;17.962;2023-04-25T11:02:49;100108.92;;;14.68;47.91
79368;BME280;68834;53.152;17.962;2023-04-25T11:05:37;100113.59;;;14.73;48.11
79368;BME280;68834;53.152;17.962;2023-04-25T11:08:11;100107.17;;;14.77;47.72
79368;BME280;68834;53.152;17.962;2023-04-25T11:10:39;100111.82;;;14.80;47.52
79368;BME280;68834;53.152;17.962;2023-04-25T11:13:06;100112.90;;;14.89;46.71
79368;BME280;68834;53.152;17.962;2023-04-25T11:15:33;100113.73;;;15.06;47.09
79368;BME280;68834;53.152;17.962;2023-04-25T11:17:59;100117.05;;;14.90;47.59
79368;BME280;68834;53.152;17.962;2023-04-25T11:20:26;100116.95;;;14.79;47.46
79368;BME280;68834;53.152;17.962;2023-04-25T11:22:57;100121.67;;;14.63;47.47
79368;BME280;68834;53.152;17.962;2023-04-25T11:25:25;100123.96;;;14.41;47.99
79368;BME280;68834;53.152;17.962;2023-04-25T11:27:59;100125.56;;;14.27;48.36
79368;BME280;68834;53.152;17.962;2023-04-25T11:30:27;100123.51;;;14.01;48.66
79368;BME280;68834;53.152;17.962;2023-04-25T11:32:56;100123.11;;;13.77;48.95
79368;BME280;68834;53.152;17.962;2023-04-25T11:35:23;100124.48;;;13.66;49.28
79368;BME280;68834;53.152;17.962;2023-04-25T11:37:51;100120.29;;;13.66;49.51
79368;BME280;68834;53.152;17.962;2023-04-25T11:40:19;100118.91;;;13.66;49.72
79368;BME280;68834;53.152;17.962;2023-04-25T11:42:46;100123.09;;;13.81;49.68
79368;BME280;68834;53.152;17.962;2023-04-25T11:45:14;100121.35;;;13.91;49.56
79368;BME280;68834;53.152;17.962;2023-04-25T11:47:41;100124.40;;;14.00;49.59
79368;BME280;68834;53.152;17.962;2023-04-25T11:50:08;100124.40;;;14.15;49.55
79368;BME280;68834;53.152;17.962;2023-04-25T11:52:43;100125.52;;;14.18;49.28
79368;BME280;68834;53.152;17.962;2023-04-25T11:55:14;100128.73;;;14.23;49.04
79368;BME280;68834;53.152;17.962;2023-04-25T11:57:41;100127.15;;;14.23;49.12
79368;BME280;68834;53.152;17.962;2023-04-25T12:00:14;100129.76;;;14.31;48.47
79368;BME280;68834;53.152;17.962;2023-04-25T12:02:43;100128.30;;;14.39;47.72
79368;BME280;68834;53.152;17.962;2023-04-25T12:05:11;100130.66;;;14.51;47.91
79368;BME280;68834;53.152;17.962;2023-04-25T12:07:38;100129.54;;;14.77;47.71
79368;BME280;68834;53.152;17.962;2023-04-25T12:10:07;100128.55;;;15.03;46.55
79368;BME280;68834;53.152;17.962;2023-04-25T12:12:35;100132.21;;;15.29;46.64
79368;BME280;68834;53.152;17.962;2023-04-25T12:15:09;100128.45;;;15.56;45.54
79368;BME280;68834;53.152;17.962;2023-04-25T12:17:38;100126.50;;;15.79;45.13
79368;BME280;68834;53.152;17.962;2023-04-25T12:20:08;100126.70;;;16.15;44.57
79368;BME280;68834;53.152;17.962;2023-04-25T12:22:34;100126.23;;;16.80;44.35
79368;BME280;68834;53.152;17.962;2023-04-25T12:25:04;100122.02;;;17.14;43.20
79368;BME280;68834;53.152;17.962;2023-04-25T12:27:31;100121.45;;;17.43;43.18
79368;BME280;68834;53.152;17.962;2023-04-25T12:29:57;100116.39;;;17.86;43.15
79368;BME280;68834;53.152;17.962;2023-04-25T12:32:24;100119.27;;;18.34;41.46
79368;BME280;68834;53.152;17.962;2023-04-25T12:34:52;100120.94;;;18.35;39.97
79368;BME280;68834;53.152;17.962;2023-04-25T12:37:19;100119.50;;;18.09;40.24
79368;BME280;68834;53.152;17.962;2023-04-25T12:39:46;100126.59;;;17.93;40.20
79368;BME280;68834;53.152;17.962;2023-04-25T12:42:12;100126.38;;;17.77;39.93
79368;BME280;68834;53.152;17.962;2023-04-25T12:44:39;100124.65;;;17.68;40.66
79368;BME280;68834;53.152;17.962;2023-04-25T12:47:06;100128.27;;;18.15;40.55
79368;BME280;68834;53.152;17.962;2023-04-25T12:49:33;100128.75;;;18.79;39.79
79368;BME280;68834;53.152;17.962;2023-04-25T12:52:00;100123.37;;;19.38;39.45
79368;BME280;68834;53.152;17.962;2023-04-25T12:54:26;100115.96;;;19.85;37.55
79368;BME280;68834;53.152;17.962;2023-04-25T12:56:53;100116.33;;;19.62;37.90
79368;BME280;68834;53.152;17.962;2023-04-25T12:59:21;100116.68;;;19.40;37.78
79368;BME280;68834;53.152;17.962;2023-04-25T13:01:47;100126.06;;;19.20;38.03
79368;BME280;68834;53.152;17.962;2023-04-25T13:04:14;100118.50;;;18.95;38.18
79368;BME280;68834;53.152;17.962;2023-04-25T13:06:42;100116.31;;;18.72;38.37
79368;BME280;68834;53.152;17.962;2023-04-25T13:09:08;100120.86;;;18.34;38.27
79368;BME280;68834;53.152;17.962;2023-04-25T13:11:35;100120.13;;;17.72;38.72